sensor_id;sensor_type;location;lat;lon;timestamp;P1;durP1;ratioP1;P2;durP2;ratioP2
37943;SDS011;23767;42.024;23.086;2023-07-30T00:01:44;5.78;;;2.30;;
37943;SDS011;23767;42.024;23.086;2023-07-30T00:04:10;7.00;;;2.40;;
37943;SDS011;23767;42.024;23.086;2023-07-30T00:06:36;3.60;;;2.20;;
37943;SDS011;23767;42.024;23.086;2023-07-30T00:09:02;4.28;;;2.63;;
37943;SDS011;23767;42.024;23.086;2023-07-30T00:11:29;3.80;;;2.20;;
37943;SDS011;23767;42.024;23.086;2023-07-30T00:13:55;6.22;;;2.38;;
37943;SDS011;23767;42.024;23.086;2023-07-30T00:16:21;4.28;;;2.10;;
37943;SDS011;23767;42.024;23.086;2023-07-30T00:18:47;4.18;;;2.38;;
37943;SDS011;23767;42.024;23.086;2023-07-30T00:21:13;5.28;;;2.47;;
37943;SDS011;23767;42.024;23.086;2023-07-30T00:23:39;6.28;;;2.40;;
37943;SDS011;23767;42.024;23.086;2023-07-30T00:26:05;4.85;;;2.63;;
37943;SDS011;23767;42.024;23.086;2023-07-30T00:28:31;3.85;;;2.38;;
37943;SDS011;23767;42.024;23.086;2023-07-30T00:30:57;3.90;;;2.38;;
37943;SDS011;23767;42.024;23.086;2023-07-30T00:33:23;4.25;;;2.22;;
37943;SDS011;23767;42.024;23.086;2023-07-30T00:35:50;4.25;;;2.13;;
37943;SDS011;23767;42.024;23.086;2023-07-30T00:38:17;4.50;;;2.50;;
37943;SDS011;23767;42.024;23.086;2023-07-30T00:40:43;4.90;;;2.35;;
37943;SDS011;23767;42.024;23.086;2023-07-30T00:43:09;3.88;;;2.42;;
37943;SDS011;23767;42.024;23.086;2023-07-30T00:45:36;3.85;;;2.17;;
37943;SDS011;23767;42.024;23.086;2023-07-30T00:48:03;4.03;;;2.30;;
37943;SDS011;23767;42.024;23.086;2023-07-30T00:50:30;4.85;;;2.55;;
37943;SDS011;23767;42.024;23.086;2023-07-30T00:52:56;4.55;;;2.50;;
37943;SDS011;23767;42.024;23.086;2023-07-30T00:55:22;5.75;;;2.35;;
37943;SDS011;23767;42.024;23.086;2023-07-30T00:57:49;3.88;;;2.15;;
37943;SDS011;23767;42.024;23.086;2023-07-30T01:00:16;3.80;;;2.40;;
37943;SDS011;23767;42.024;23.086;2023-07-30T01:02:42;4.13;;;2.15;;
37943;SDS011;23767;42.024;23.086;2023-07-30T01:05:08;5.72;;;3.03;;
37943;SDS011;23767;42.024;23.086;2023-07-30T01:07:34;4.53;;;2.50;;
37943;SDS011;23767;42.024;23.086;2023-07-30T01:10:00;4.80;;;2.80;;
37943;SDS011;23767;42.024;23.086;2023-07-30T01:12:27;4.35;;;2.60;;
37943;SDS011;23767;42.024;23.086;2023-07-30T01:14:55;5.53;;;2.72;;
37943;SDS011;23767;42.024;23.086;2023-07-30T01:17:22;4.70;;;2.55;;
37943;SDS011;23767;42.024;23.086;2023-07-30T01:19:48;5.68;;;2.88;;
37943;SDS011;23767;42.024;23.086;2023-07-30T01:22:19;6.05;;;2.97;;
37943;SDS011;23767;42.024;23.086;2023-07-30T01:24:46;4.63;;;2.65;;
37943;SDS011;23767;42.024;23.086;2023-07-30T01:27:14;5.63;;;2.60;;
37943;SDS011;23767;42.024;23.086;2023-07-30T01:29:42;4.90;;;2.60;;
37943;SDS011;23767;42.024;23.086;2023-07-30T01:32:11;5.25;;;2.97;;
37943;SDS011;23767;42.024;23.086;2023-07-30T01:34:37;4.90;;;2.60;;
37943;SDS011;23767;42.024;23.086;2023-07-30T01:37:05;4.82;;;2.70;;
37943;SDS011;23767;42.024;23.086;2023-07-30T01:39:32;4.00;;;2.60;;
37943;SDS011;23767;42.024;23.086;2023-07-30T01:41:58;5.93;;;2.60;;
37943;SDS011;23767;42.024;23.086;2023-07-30T01:44:24;5.80;;;2.60;;
37943;SDS011;23767;42.024;23.086;2023-07-30T01:46:50;4.28;;;2.60;;
37943;SDS011;23767;42.024;23.086;2023-07-30T01:49:16;5.00;;;2.50;;
37943;SDS011;23767;42.024;23.086;2023-07-30T01:51:42;5.43;;;2.80;;
37943;SDS011;23767;42.024;23.086;2023-07-30T01:54:08;4.53;;;2.70;;
37943;SDS011;23767;42.024;23.086;2023-07-30T01:56:34;5.15;;;2.80;;
37943;SDS011;23767;42.024;23.086;2023-07-30T01:59:00;4.65;;;2.80;;
37943;SDS011;23767;42.024;23.086;2023-07-30T02:01:26;5.15;;;2.72;;
37943;SDS011;23767;42.024;23.086;2023-07-30T02:03:52;5.03;;;2.83;;
37943;SDS011;23767;42.024;23.086;2023-07-30T02:06:18;4.47;;;2.70;;
37943;SDS011;23767;42.024;23.086;2023-07-30T02:08:44;3.78;;;2.47;;
37943;SDS011;23767;42.024;23.086;2023-07-30T02:11:10;4.97;;;2.55;;
37943;SDS011;23767;42.024;23.086;2023-07-30T02:13:37;4.75;;;3.08;;
37943;SDS011;23767;42.024;23.086;2023-07-30T02:16:03;5.03;;;2.88;;
37943;SDS011;23767;42.024;23.086;2023-07-30T02:18:29;5.82;;;2.85;;
37943;SDS011;23767;42.024;23.086;2023-07-30T02:20:55;5.05;;;2.78;;
37943;SDS011;23767;42.024;23.086;2023-07-30T02:23:21;5.88;;;2.92;;
37943;SDS011;23767;42.024;23.086;2023-07-30T02:25:47;5.18;;;3.08;;
37943;SDS011;23767;42.024;23.086;2023-07-30T02:28:13;4.78;;;2.80;;
37943;SDS011;23767;42.024;23.086;2023-07-30T02:30:39;4.88;;;3.00;;
37943;SDS011;23767;42.024;23.086;2023-07-30T02:33:05;6.22;;;3.58;;
37943;SDS011;23767;42.024;23.086;2023-07-30T02:35:31;4.30;;;2.63;;
37943;SDS011;23767;42.024;23.086;2023-07-30T02:37:57;5.03;;;3.03;;
37943;SDS011;23767;42.024;23.086;2023-07-30T02:40:23;5.63;;;2.72;;
37943;SDS011;23767;42.024;23.086;2023-07-30T02:42:49;6.57;;;3.10;;
37943;SDS011;23767;42.024;23.086;2023-07-30T02:45:15;4.75;;;2.80;;
37943;SDS011;23767;42.024;23.086;2023-07-30T02:47:43;4.97;;;2.78;;
37943;SDS011;23767;42.024;23.086;2023-07-30T02:50:09;6.40;;;2.95;;
37943;SDS011;23767;42.024;23.086;2023-07-30T02:52:35;5.40;;;3.28;;
37943;SDS011;23767;42.024;23.086;2023-07-30T02:55:01;5.20;;;3.22;;
37943;SDS011;23767;42.024;23.086;2023-07-30T02:57:27;5.20;;;3.17;;
37943;SDS011;23767;42.024;23.086;2023-07-30T02:59:53;6.43;;;3.00;;
37943;SDS011;23767;42.024;23.086;2023-07-30T03:02:19;7.00;;;3.25;;
37943;SDS011;23767;42.024;23.086;2023-07-30T03:04:45;4.45;;;2.97;;
37943;SDS011;23767;42.024;23.086;2023-07-30T03:07:11;6.10;;;3.10;;
37943;SDS011;23767;42.024;23.086;2023-07-30T03:09:37;6.10;;;3.33;;
37943;SDS011;23767;42.024;23.086;2023-07-30T03:12:03;5.03;;;3.30;;
37943;SDS011;23767;42.024;23.086;2023-07-30T03:14:30;5.32;;;3.55;;
37943;SDS011;23767;42.024;23.086;2023-07-30T03:16:56;6.88;;;3.38;;
37943;SDS011;23767;42.024;23.086;2023-07-30T03:19:22;10.68;;;3.28;;
37943;SDS011;23767;42.024;23.086;2023-07-30T03:21:48;5.32;;;3.17;;
37943;SDS011;23767;42.024;23.086;2023-07-30T03:24:14;6.05;;;2.90;;
37943;SDS011;23767;42.024;23.086;2023-07-30T03:26:40;5.97;;;3.05;;
37943;SDS011;23767;42.024;23.086;2023-07-30T03:29:06;6.07;;;3.00;;
37943;SDS011;23767;42.024;23.086;2023-07-30T03:31:32;5.53;;;3.08;;
37943;SDS011;23767;42.024;23.086;2023-07-30T03:33:58;5.75;;;3.28;;
37943;SDS011;23767;42.024;23.086;2023-07-30T03:36:24;7.18;;;3.08;;
37943;SDS011;23767;42.024;23.086;2023-07-30T03:38:50;6.10;;;3.28;;
37943;SDS011;23767;42.024;23.086;2023-07-30T03:41:16;5.50;;;3.25;;
37943;SDS011;23767;42.024;23.086;2023-07-30T03:43:42;6.97;;;3.10;;
37943;SDS011;23767;42.024;23.086;2023-07-30T03:46:08;4.95;;;3.03;;
37943;SDS011;23767;42.024;23.086;2023-07-30T03:48:34;8.13;;;3.20;;
37943;SDS011;23767;42.024;23.086;2023-07-30T03:51:00;5.35;;;2.97;;
37943;SDS011;23767;42.024;23.086;2023-07-30T03:53:26;5.07;;;2.65;;
37943;SDS011;23767;42.024;23.086;2023-07-30T03:55:52;4.93;;;2.88;;
37943;SDS011;23767;42.024;23.086;2023-07-30T03:58:18;5.00;;;3.10;;
37943;SDS011;23767;42.024;23.086;2023-07-30T04:00:44;7.40;;;2.88;;
37943;SDS011;23767;42.024;23.086;2023-07-30T04:03:10;5.07;;;2.88;;
37943;SDS011;23767;42.024;23.086;2023-07-30T04:05:36;6.85;;;3.03;;
37943;SDS011;23767;42.024;23.086;2023-07-30T04:08:02;6.40;;;3.47;;
37943;SDS011;23767;42.024;23.086;2023-07-30T04:10:28;10.88;;;3.28;;
37943;SDS011;23767;42.024;23.086;2023-07-30T04:12:54;4.72;;;3.10;;
37943;SDS011;23767;42.024;23.086;2023-07-30T04:15:20;6.35;;;3.97;;
37943;SDS011;23767;42.024;23.086;2023-07-30T04:17:46;4.88;;;2.97;;
37943;SDS011;23767;42.024;23.086;2023-07-30T04:20:12;5.63;;;2.80;;
37943;SDS011;23767;42.024;23.086;2023-07-30T04:22:38;6.97;;;3.55;;
37943;SDS011;23767;42.024;23.086;2023-07-30T04:25:06;5.22;;;3.33;;
37943;SDS011;23767;42.024;23.086;2023-07-30T04:27:33;4.90;;;3.00;;
37943;SDS011;23767;42.024;23.086;2023-07-30T04:29:59;7.68;;;3.78;;
37943;SDS011;23767;42.024;23.086;2023-07-30T04:32:25;5.28;;;2.97;;
37943;SDS011;23767;42.024;23.086;2023-07-30T04:34:51;5.38;;;3.40;;
37943;SDS011;23767;42.024;23.086;2023-07-30T04:37:17;6.32;;;2.88;;
37943;SDS011;23767;42.024;23.086;2023-07-30T04:39:43;7.13;;;3.20;;
37943;SDS011;23767;42.024;23.086;2023-07-30T04:42:09;6.93;;;3.40;;
37943;SDS011;23767;42.024;23.086;2023-07-30T04:44:35;7.32;;;3.60;;
37943;SDS011;23767;42.024;23.086;2023-07-30T04:47:01;6.85;;;3.80;;
37943;SDS011;23767;42.024;23.086;2023-07-30T04:49:27;6.65;;;4.00;;
37943;SDS011;23767;42.024;23.086;2023-07-30T04:51:53;6.28;;;4.00;;
37943;SDS011;23767;42.024;23.086;2023-07-30T04:54:19;9.65;;;4.32;;
37943;SDS011;23767;42.024;23.086;2023-07-30T04:56:45;7.82;;;4.32;;
37943;SDS011;23767;42.024;23.086;2023-07-30T04:59:11;11.23;;;5.18;;
37943;SDS011;23767;42.024;23.086;2023-07-30T05:01:37;10.32;;;4.43;;
37943;SDS011;23767;42.024;23.086;2023-07-30T05:04:04;5.70;;;3.38;;
37943;SDS011;23767;42.024;23.086;2023-07-30T05:06:30;6.28;;;4.13;;
37943;SDS011;23767;42.024;23.086;2023-07-30T05:08:56;6.45;;;3.88;;
37943;SDS011;23767;42.024;23.086;2023-07-30T05:11:22;7.10;;;3.80;;
37943;SDS011;23767;42.024;23.086;2023-07-30T05:13:48;6.65;;;3.50;;
37943;SDS011;23767;42.024;23.086;2023-07-30T05:16:14;7.10;;;3.58;;
37943;SDS011;23767;42.024;23.086;2023-07-30T05:18:40;6.13;;;3.53;;
37943;SDS011;23767;42.024;23.086;2023-07-30T05:21:06;6.30;;;3.47;;
37943;SDS011;23767;42.024;23.086;2023-07-30T05:23:32;6.55;;;3.28;;
37943;SDS011;23767;42.024;23.086;2023-07-30T05:25:58;5.28;;;3.78;;
37943;SDS011;23767;42.024;23.086;2023-07-30T05:28:24;6.10;;;3.85;;
37943;SDS011;23767;42.024;23.086;2023-07-30T05:30:50;6.75;;;3.15;;
37943;SDS011;23767;42.024;23.086;2023-07-30T05:33:16;9.35;;;3.83;;
37943;SDS011;23767;42.024;23.086;2023-07-30T05:35:42;5.75;;;3.50;;
37943;SDS011;23767;42.024;23.086;2023-07-30T05:38:09;6.80;;;3.20;;
37943;SDS011;23767;42.024;23.086;2023-07-30T05:40:35;6.28;;;3.50;;
37943;SDS011;23767;42.024;23.086;2023-07-30T05:43:01;6.00;;;3.80;;
37943;SDS011;23767;42.024;23.086;2023-07-30T05:45:28;4.68;;;3.30;;
37943;SDS011;23767;42.024;23.086;2023-07-30T05:47:54;6.88;;;3.40;;
37943;SDS011;23767;42.024;23.086;2023-07-30T05:50:20;7.13;;;3.90;;
37943;SDS011;23767;42.024;23.086;2023-07-30T05:52:46;6.82;;;3.65;;
37943;SDS011;23767;42.024;23.086;2023-07-30T05:55:12;6.30;;;3.45;;
37943;SDS011;23767;42.024;23.086;2023-07-30T05:57:38;6.40;;;3.40;;
37943;SDS011;23767;42.024;23.086;2023-07-30T06:00:04;6.47;;;3.55;;
37943;SDS011;23767;42.024;23.086;2023-07-30T06:02:30;6.97;;;3.40;;
37943;SDS011;23767;42.024;23.086;2023-07-30T06:04:56;7.53;;;3.75;;
37943;SDS011;23767;42.024;23.086;2023-07-30T06:07:22;9.05;;;3.90;;
37943;SDS011;23767;42.024;23.086;2023-07-30T06:09:48;5.15;;;3.42;;
37943;SDS011;23767;42.024;23.086;2023-07-30T06:12:14;6.13;;;3.70;;
37943;SDS011;23767;42.024;23.086;2023-07-30T06:14:40;5.13;;;3.20;;
37943;SDS011;23767;42.024;23.086;2023-07-30T06:17:06;5.85;;;3.85;;
37943;SDS011;23767;42.024;23.086;2023-07-30T06:19:32;8.05;;;3.92;;
37943;SDS011;23767;42.024;23.086;2023-07-30T06:21:58;5.72;;;3.38;;
37943;SDS011;23767;42.024;23.086;2023-07-30T06:24:25;6.80;;;3.60;;
37943;SDS011;23767;42.024;23.086;2023-07-30T06:26:51;6.20;;;3.40;;
37943;SDS011;23767;42.024;23.086;2023-07-30T06:29:17;10.00;;;3.92;;
37943;SDS011;23767;42.024;23.086;2023-07-30T06:31:43;5.72;;;3.53;;
37943;SDS011;23767;42.024;23.086;2023-07-30T06:34:09;9.48;;;3.83;;
37943;SDS011;23767;42.024;23.086;2023-07-30T06:36:35;6.47;;;3.60;;
37943;SDS011;23767;42.024;23.086;2023-07-30T06:39:01;8.98;;;3.83;;
37943;SDS011;23767;42.024;23.086;2023-07-30T06:41:27;8.52;;;4.00;;
37943;SDS011;23767;42.024;23.086;2023-07-30T06:43:53;5.75;;;3.55;;
37943;SDS011;23767;42.024;23.086;2023-07-30T06:46:19;6.97;;;3.75;;
37943;SDS011;23767;42.024;23.086;2023-07-30T06:48:45;5.82;;;3.47;;
37943;SDS011;23767;42.024;23.086;2023-07-30T06:51:11;6.95;;;3.85;;
37943;SDS011;23767;42.024;23.086;2023-07-30T06:53:38;6.32;;;3.33;;
37943;SDS011;23767;42.024;23.086;2023-07-30T06:56:04;7.53;;;3.95;;
37943;SDS011;23767;42.024;23.086;2023-07-30T06:58:30;5.22;;;3.15;;
37943;SDS011;23767;42.024;23.086;2023-07-30T07:00:56;5.05;;;3.40;;
37943;SDS011;23767;42.024;23.086;2023-07-30T07:03:22;5.10;;;3.28;;
37943;SDS011;23767;42.024;23.086;2023-07-30T07:05:55;6.55;;;3.55;;
37943;SDS011;23767;42.024;23.086;2023-07-30T07:08:21;7.15;;;3.83;;
37943;SDS011;23767;42.024;23.086;2023-07-30T07:10:47;6.28;;;3.42;;
37943;SDS011;23767;42.024;23.086;2023-07-30T07:13:13;6.45;;;3.53;;
37943;SDS011;23767;42.024;23.086;2023-07-30T07:15:43;7.68;;;3.38;;
37943;SDS011;23767;42.024;23.086;2023-07-30T07:18:09;6.47;;;3.33;;
37943;SDS011;23767;42.024;23.086;2023-07-30T07:20:35;6.53;;;3.28;;
37943;SDS011;23767;42.024;23.086;2023-07-30T07:23:02;8.00;;;3.50;;
37943;SDS011;23767;42.024;23.086;2023-07-30T07:25:28;6.55;;;3.67;;
37943;SDS011;23767;42.024;23.086;2023-07-30T07:27:54;6.30;;;2.90;;
37943;SDS011;23767;42.024;23.086;2023-07-30T07:30:20;4.70;;;2.95;;
37943;SDS011;23767;42.024;23.086;2023-07-30T07:32:46;4.88;;;2.97;;
37943;SDS011;23767;42.024;23.086;2023-07-30T07:35:15;5.22;;;2.92;;
37943;SDS011;23767;42.024;23.086;2023-07-30T07:37:42;7.47;;;3.63;;
37943;SDS011;23767;42.024;23.086;2023-07-30T07:40:08;6.75;;;3.80;;
37943;SDS011;23767;42.024;23.086;2023-07-30T07:42:34;6.80;;;3.28;;
37943;SDS011;23767;42.024;23.086;2023-07-30T07:45:01;5.88;;;3.17;;
37943;SDS011;23767;42.024;23.086;2023-07-30T07:47:27;6.70;;;3.33;;
37943;SDS011;23767;42.024;23.086;2023-07-30T07:49:53;6.25;;;3.30;;
37943;SDS011;23767;42.024;23.086;2023-07-30T07:52:19;5.90;;;3.22;;
37943;SDS011;23767;42.024;23.086;2023-07-30T07:54:45;5.50;;;3.20;;
37943;SDS011;23767;42.024;23.086;2023-07-30T07:57:12;4.38;;;2.90;;
37943;SDS011;23767;42.024;23.086;2023-07-30T07:59:38;5.28;;;3.30;;
37943;SDS011;23767;42.024;23.086;2023-07-30T08:02:06;5.57;;;2.90;;
37943;SDS011;23767;42.024;23.086;2023-07-30T08:04:32;6.13;;;3.10;;
37943;SDS011;23767;42.024;23.086;2023-07-30T08:06:58;5.20;;;3.08;;
37943;SDS011;23767;42.024;23.086;2023-07-30T08:09:28;6.72;;;2.70;;
37943;SDS011;23767;42.024;23.086;2023-07-30T08:11:54;4.85;;;2.50;;
37943;SDS011;23767;42.024;23.086;2023-07-30T08:14:20;4.15;;;2.50;;
37943;SDS011;23767;42.024;23.086;2023-07-30T08:16:46;5.10;;;2.80;;
37943;SDS011;23767;42.024;23.086;2023-07-30T08:19:12;6.60;;;2.65;;
37943;SDS011;23767;42.024;23.086;2023-07-30T08:21:38;4.63;;;2.88;;
37943;SDS011;23767;42.024;23.086;2023-07-30T08:24:04;11.32;;;2.97;;
37943;SDS011;23767;42.024;23.086;2023-07-30T08:26:30;5.40;;;2.60;;
37943;SDS011;23767;42.024;23.086;2023-07-30T08:28:57;4.28;;;2.60;;
37943;SDS011;23767;42.024;23.086;2023-07-30T08:31:23;5.53;;;2.85;;
37943;SDS011;23767;42.024;23.086;2023-07-30T08:33:49;4.57;;;2.63;;
37943;SDS011;23767;42.024;23.086;2023-07-30T08:36:15;5.13;;;3.15;;
37943;SDS011;23767;42.024;23.086;2023-07-30T08:38:41;6.80;;;3.15;;
37943;SDS011;23767;42.024;23.086;2023-07-30T08:41:07;6.30;;;2.90;;
37943;SDS011;23767;42.024;23.086;2023-07-30T08:43:34;6.45;;;3.15;;
37943;SDS011;23767;42.024;23.086;2023-07-30T08:46:00;5.57;;;2.83;;
37943;SDS011;23767;42.024;23.086;2023-07-30T08:48:26;5.43;;;2.85;;
37943;SDS011;23767;42.024;23.086;2023-07-30T08:50:53;4.28;;;2.70;;
37943;SDS011;23767;42.024;23.086;2023-07-30T08:53:22;4.28;;;2.83;;
37943;SDS011;23767;42.024;23.086;2023-07-30T08:55:48;4.93;;;2.83;;
37943;SDS011;23767;42.024;23.086;2023-07-30T08:58:14;5.18;;;2.80;;
37943;SDS011;23767;42.024;23.086;2023-07-30T09:00:42;5.88;;;2.90;;
37943;SDS011;23767;42.024;23.086;2023-07-30T09:03:08;6.63;;;2.92;;
37943;SDS011;23767;42.024;23.086;2023-07-30T09:05:34;6.95;;;3.08;;
37943;SDS011;23767;42.024;23.086;2023-07-30T09:08:00;5.53;;;2.72;;
37943;SDS011;23767;42.024;23.086;2023-07-30T09:10:26;4.55;;;2.60;;
37943;SDS011;23767;42.024;23.086;2023-07-30T09:12:53;5.07;;;2.88;;
37943;SDS011;23767;42.024;23.086;2023-07-30T09:15:20;4.63;;;2.67;;
37943;SDS011;23767;42.024;23.086;2023-07-30T09:17:55;4.07;;;2.55;;
37943;SDS011;23767;42.024;23.086;2023-07-30T09:20:21;4.47;;;2.67;;
37943;SDS011;23767;42.024;23.086;2023-07-30T09:22:47;4.25;;;2.50;;
37943;SDS011;23767;42.024;23.086;2023-07-30T09:25:17;7.22;;;2.95;;
37943;SDS011;23767;42.024;23.086;2023-07-30T09:27:47;5.60;;;2.45;;
37943;SDS011;23767;42.024;23.086;2023-07-30T09:30:14;5.18;;;2.83;;
37943;SDS011;23767;42.024;23.086;2023-07-30T09:32:40;4.88;;;2.58;;
37943;SDS011;23767;42.024;23.086;2023-07-30T09:35:07;5.10;;;2.80;;
37943;SDS011;23767;42.024;23.086;2023-07-30T09:37:40;5.15;;;2.92;;
37943;SDS011;23767;42.024;23.086;2023-07-30T09:42:32;5.15;;;2.13;;
37943;SDS011;23767;42.024;23.086;2023-07-30T09:45:00;4.35;;;2.60;;
37943;SDS011;23767;42.024;23.086;2023-07-30T09:47:26;3.75;;;2.40;;
37943;SDS011;23767;42.024;23.086;2023-07-30T09:49:53;5.45;;;2.58;;
37943;SDS011;23767;42.024;23.086;2023-07-30T09:52:20;6.07;;;2.75;;
37943;SDS011;23767;42.024;23.086;2023-07-30T09:54:46;5.55;;;2.55;;
37943;SDS011;23767;42.024;23.086;2023-07-30T09:57:14;5.15;;;2.78;;
37943;SDS011;23767;42.024;23.086;2023-07-30T09:59:40;5.28;;;2.80;;
37943;SDS011;23767;42.024;23.086;2023-07-30T10:02:07;5.35;;;2.55;;
37943;SDS011;23767;42.024;23.086;2023-07-30T10:04:34;4.75;;;2.78;;
37943;SDS011;23767;42.024;23.086;2023-07-30T10:07:03;4.60;;;2.42;;
37943;SDS011;23767;42.024;23.086;2023-07-30T10:09:34;3.70;;;2.20;;
37943;SDS011;23767;42.024;23.086;2023-07-30T10:12:03;5.93;;;2.70;;
37943;SDS011;23767;42.024;23.086;2023-07-30T10:14:30;6.03;;;2.53;;
37943;SDS011;23767;42.024;23.086;2023-07-30T10:16:59;4.45;;;2.30;;
37943;SDS011;23767;42.024;23.086;2023-07-30T10:19:26;4.75;;;2.78;;
37943;SDS011;23767;42.024;23.086;2023-07-30T10:22:19;4.97;;;2.60;;
37943;SDS011;23767;42.024;23.086;2023-07-30T10:24:57;4.45;;;2.67;;
37943;SDS011;23767;42.024;23.086;2023-07-30T10:27:24;4.78;;;2.65;;
37943;SDS011;23767;42.024;23.086;2023-07-30T10:29:51;5.00;;;2.65;;
37943;SDS011;23767;42.024;23.086;2023-07-30T10:38:17;4.60;;;2.80;;
37943;SDS011;23767;42.024;23.086;2023-07-30T10:43:30;4.03;;;2.22;;
37943;SDS011;23767;42.024;23.086;2023-07-30T10:45:56;6.30;;;2.55;;
37943;SDS011;23767;42.024;23.086;2023-07-30T10:48:29;3.95;;;2.50;;
37943;SDS011;23767;42.024;23.086;2023-07-30T10:50:56;5.85;;;2.60;;
37943;SDS011;23767;42.024;23.086;2023-07-30T10:53:22;4.30;;;2.40;;
37943;SDS011;23767;42.024;23.086;2023-07-30T10:55:48;5.10;;;2.67;;
37943;SDS011;23767;42.024;23.086;2023-07-30T10:58:14;5.05;;;2.95;;
37943;SDS011;23767;42.024;23.086;2023-07-30T11:00:41;3.85;;;2.45;;
37943;SDS011;23767;42.024;23.086;2023-07-30T11:03:07;6.05;;;2.60;;
37943;SDS011;23767;42.024;23.086;2023-07-30T11:05:33;5.32;;;2.40;;
37943;SDS011;23767;42.024;23.086;2023-07-30T11:07:59;5.90;;;2.60;;
37943;SDS011;23767;42.024;23.086;2023-07-30T11:10:25;4.43;;;2.50;;
37943;SDS011;23767;42.024;23.086;2023-07-30T11:12:51;5.15;;;2.42;;
37943;SDS011;23767;42.024;23.086;2023-07-30T11:15:17;5.40;;;2.80;;
37943;SDS011;23767;42.024;23.086;2023-07-30T11:17:43;4.43;;;2.60;;
37943;SDS011;23767;42.024;23.086;2023-07-30T11:20:26;4.00;;;2.40;;
37943;SDS011;23767;42.024;23.086;2023-07-30T11:22:53;5.65;;;2.70;;
37943;SDS011;23767;42.024;23.086;2023-07-30T11:25:19;4.20;;;2.50;;
37943;SDS011;23767;42.024;23.086;2023-07-30T11:27:48;6.45;;;2.65;;
37943;SDS011;23767;42.024;23.086;2023-07-30T11:30:15;4.57;;;2.60;;
37943;SDS011;23767;42.024;23.086;2023-07-30T11:32:44;4.63;;;2.38;;
37943;SDS011;23767;42.024;23.086;2023-07-30T11:35:10;4.50;;;2.40;;
37943;SDS011;23767;42.024;23.086;2023-07-30T11:37:37;5.40;;;2.33;;
37943;SDS011;23767;42.024;23.086;2023-07-30T11:40:06;4.68;;;2.50;;
37943;SDS011;23767;42.024;23.086;2023-07-30T11:42:33;4.65;;;2.47;;
37943;SDS011;23767;42.024;23.086;2023-07-30T11:45:01;4.63;;;2.60;;
37943;SDS011;23767;42.024;23.086;2023-07-30T11:47:42;4.85;;;2.35;;
37943;SDS011;23767;42.024;23.086;2023-07-30T11:50:08;4.53;;;2.40;;
37943;SDS011;23767;42.024;23.086;2023-07-30T11:52:34;4.07;;;2.40;;
37943;SDS011;23767;42.024;23.086;2023-07-30T11:55:01;3.55;;;2.30;;
37943;SDS011;23767;42.024;23.086;2023-07-30T11:57:37;5.35;;;2.40;;
37943;SDS011;23767;42.024;23.086;2023-07-30T12:00:03;3.90;;;2.28;;
37943;SDS011;23767;42.024;23.086;2023-07-30T12:02:29;4.28;;;2.20;;
37943;SDS011;23767;42.024;23.086;2023-07-30T12:04:55;8.18;;;2.72;;
37943;SDS011;23767;42.024;23.086;2023-07-30T12:07:24;4.97;;;2.38;;
37943;SDS011;23767;42.024;23.086;2023-07-30T12:09:50;4.28;;;2.40;;
37943;SDS011;23767;42.024;23.086;2023-07-30T12:12:16;5.65;;;2.50;;
37943;SDS011;23767;42.024;23.086;2023-07-30T12:14:43;5.47;;;2.58;;
37943;SDS011;23767;42.024;23.086;2023-07-30T12:17:10;5.80;;;2.53;;
37943;SDS011;23767;42.024;23.086;2023-07-30T12:19:36;4.22;;;2.40;;
37943;SDS011;23767;42.024;23.086;2023-07-30T12:22:02;3.95;;;2.25;;
37943;SDS011;23767;42.024;23.086;2023-07-30T12:24:28;4.18;;;2.50;;
37943;SDS011;23767;42.024;23.086;2023-07-30T12:26:54;5.25;;;3.15;;
37943;SDS011;23767;42.024;23.086;2023-07-30T12:29:20;4.15;;;2.60;;
37943;SDS011;23767;42.024;23.086;2023-07-30T12:31:47;5.32;;;2.53;;
37943;SDS011;23767;42.024;23.086;2023-07-30T12:34:16;4.30;;;2.50;;
37943;SDS011;23767;42.024;23.086;2023-07-30T12:36:42;5.07;;;2.70;;
37943;SDS011;23767;42.024;23.086;2023-07-30T12:39:09;5.60;;;2.80;;
37943;SDS011;23767;42.024;23.086;2023-07-30T12:41:35;4.18;;;2.60;;
37943;SDS011;23767;42.024;23.086;2023-07-30T12:44:01;6.78;;;3.00;;
37943;SDS011;23767;42.024;23.086;2023-07-30T12:46:28;5.55;;;2.80;;
37943;SDS011;23767;42.024;23.086;2023-07-30T12:48:55;5.40;;;2.60;;
37943;SDS011;23767;42.024;23.086;2023-07-30T12:51:21;5.63;;;3.08;;
37943;SDS011;23767;42.024;23.086;2023-07-30T12:53:47;4.07;;;2.70;;
37943;SDS011;23767;42.024;23.086;2023-07-30T12:56:13;4.78;;;2.70;;
37943;SDS011;23767;42.024;23.086;2023-07-30T12:58:40;4.57;;;2.60;;
37943;SDS011;23767;42.024;23.086;2023-07-30T13:01:06;4.53;;;2.45;;
37943;SDS011;23767;42.024;23.086;2023-07-30T13:03:32;4.30;;;2.47;;
37943;SDS011;23767;42.024;23.086;2023-07-30T13:05:58;7.30;;;3.20;;
37943;SDS011;23767;42.024;23.086;2023-07-30T13:08:24;4.97;;;2.78;;
37943;SDS011;23767;42.024;23.086;2023-07-30T13:10:50;4.55;;;2.70;;
37943;SDS011;23767;42.024;23.086;2023-07-30T13:13:16;4.63;;;2.45;;
37943;SDS011;23767;42.024;23.086;2023-07-30T13:15:42;4.57;;;2.50;;
37943;SDS011;23767;42.024;23.086;2023-07-30T13:18:09;4.50;;;2.63;;
37943;SDS011;23767;42.024;23.086;2023-07-30T13:20:35;4.80;;;2.67;;
37943;SDS011;23767;42.024;23.086;2023-07-30T13:23:01;4.88;;;2.38;;
37943;SDS011;23767;42.024;23.086;2023-07-30T13:25:27;4.97;;;2.63;;
37943;SDS011;23767;42.024;23.086;2023-07-30T13:27:53;5.03;;;2.60;;
37943;SDS011;23767;42.024;23.086;2023-07-30T13:30:19;4.07;;;2.55;;
37943;SDS011;23767;42.024;23.086;2023-07-30T13:32:45;3.92;;;2.38;;
37943;SDS011;23767;42.024;23.086;2023-07-30T13:35:11;5.45;;;2.83;;
37943;SDS011;23767;42.024;23.086;2023-07-30T13:37:37;5.03;;;2.70;;
37943;SDS011;23767;42.024;23.086;2023-07-30T13:40:04;4.80;;;2.60;;
37943;SDS011;23767;42.024;23.086;2023-07-30T13:42:30;6.18;;;2.88;;
37943;SDS011;23767;42.024;23.086;2023-07-30T13:44:56;4.35;;;2.60;;
37943;SDS011;23767;42.024;23.086;2023-07-30T13:47:22;5.07;;;2.80;;
37943;SDS011;23767;42.024;23.086;2023-07-30T13:49:48;4.50;;;2.90;;
37943;SDS011;23767;42.024;23.086;2023-07-30T13:52:14;5.22;;;2.70;;
37943;SDS011;23767;42.024;23.086;2023-07-30T13:54:40;6.38;;;2.65;;
37943;SDS011;23767;42.024;23.086;2023-07-30T13:57:07;4.88;;;2.78;;
37943;SDS011;23767;42.024;23.086;2023-07-30T13:59:34;3.95;;;2.40;;
37943;SDS011;23767;42.024;23.086;2023-07-30T14:02:03;5.07;;;2.75;;
37943;SDS011;23767;42.024;23.086;2023-07-30T14:04:29;4.95;;;2.63;;
37943;SDS011;23767;42.024;23.086;2023-07-30T14:06:55;5.97;;;2.60;;
37943;SDS011;23767;42.024;23.086;2023-07-30T14:09:21;5.63;;;2.83;;
37943;SDS011;23767;42.024;23.086;2023-07-30T14:11:47;3.83;;;2.50;;
37943;SDS011;23767;42.024;23.086;2023-07-30T14:14:13;9.20;;;3.00;;
37943;SDS011;23767;42.024;23.086;2023-07-30T14:16:39;4.22;;;2.70;;
37943;SDS011;23767;42.024;23.086;2023-07-30T14:19:05;5.50;;;2.70;;
37943;SDS011;23767;42.024;23.086;2023-07-30T14:21:31;4.40;;;2.58;;
37943;SDS011;23767;42.024;23.086;2023-07-30T14:23:57;5.95;;;2.45;;
37943;SDS011;23767;42.024;23.086;2023-07-30T14:26:23;3.97;;;2.47;;
37943;SDS011;23767;42.024;23.086;2023-07-30T14:28:49;3.80;;;2.50;;
37943;SDS011;23767;42.024;23.086;2023-07-30T14:31:15;5.07;;;2.40;;
37943;SDS011;23767;42.024;23.086;2023-07-30T14:33:41;4.15;;;2.63;;
37943;SDS011;23767;42.024;23.086;2023-07-30T14:36:07;4.95;;;2.67;;
37943;SDS011;23767;42.024;23.086;2023-07-30T14:38:36;3.80;;;2.50;;
37943;SDS011;23767;42.024;23.086;2023-07-30T14:41:02;3.92;;;2.55;;